الصفحة الرئيسية
METAR-TAF:

METAR-TAF

مطار :

Griffith, أستراليا

دائرة عرض: 34-15-06S, خط طول: 146-04-00E, ارتفاع: 134 متر

مراقبة الطقس الحالي

تاريخ ووقت الإصدار 1ساعة و 4 دقيقة قبل الساعة 21:00UTC
ريح 8 عقدة من الشرق
درجة الحرارة 5°درجة مئوية
الرطوبة 100%
ضغط 1024 hPa
الرؤية 10 كم أو أكثر

METAR: YGTH 252100Z AUTO 10008KT 9999 // NCD 05/05 Q1024

زمن: 08:04 (22:04 UTC)


TAF: مفقودة

أرصاد الطقس والتوقعات من أكثر من 4000 مطار (تقارير الطقس للمطار METAR والتنبؤ بالطقس بالمطارTAF).

المحطات المتاحة هي النقط الصفراء والحمراء على الخريطة.

حرك المؤشر فوق النقطة لمعرفة اسم المحطة.

ثم انقر لمعرفة أرصاد وتوقعات الطقس.

لتغيير الخارطة: اضغط على الأزرار الخضراء مع رمز الصليب الأسود للتكبير. على الزر الأخضر مع شرطة للتصغير، أو على الأسهم الخضراء للخرائط المجاورة.


METAR-TAF: